createdAt,value
2018-07-07T00:00:29.386Z,15.60
2018-07-07T00:02:58.184Z,15.60
2018-07-07T00:05:26.981Z,15.60
2018-07-07T00:10:25.091Z,15.50
2018-07-07T00:12:53.852Z,15.50
2018-07-07T00:15:22.693Z,15.60
2018-07-07T00:17:52.607Z,15.50
2018-07-07T00:20:21.466Z,15.50
2018-07-07T00:22:50.280Z,15.40
2018-07-07T00:25:20.363Z,15.40
2018-07-07T00:27:49.710Z,15.40
2018-07-07T00:30:19.107Z,15.40
2018-07-07T00:32:48.070Z,15.30
2018-07-07T00:35:17.140Z,15.30
2018-07-07T00:37:45.901Z,15.30
2018-07-07T00:40:14.688Z,15.30
2018-07-07T00:42:43.893Z,15.30
2018-07-07T00:45:12.701Z,15.30
2018-07-07T00:47:41.468Z,15.30
2018-07-07T00:50:10.332Z,15.30
2018-07-07T00:52:39.204Z,15.30
2018-07-07T00:55:08.084Z,15.30
2018-07-07T00:57:36.924Z,15.30
2018-07-07T01:00:05.826Z,15.30
2018-07-07T01:02:34.665Z,15.30
2018-07-07T01:05:03.464Z,15.20
2018-07-07T01:07:32.226Z,15.20
2018-07-07T01:10:01.207Z,15.20
2018-07-07T01:12:30.141Z,15.20
2018-07-07T01:14:58.957Z,15.20
2018-07-07T01:17:28.436Z,15.10
2018-07-07T01:19:57.361Z,15.20
2018-07-07T01:24:54.632Z,15.10
2018-07-07T01:27:23.628Z,15.00
2018-07-07T01:29:52.426Z,15.10
2018-07-07T01:32:21.221Z,15.10
2018-07-07T01:34:50.044Z,15.00
2018-07-07T01:37:18.980Z,15.00
2018-07-07T01:39:47.755Z,15.00
2018-07-07T01:42:16.541Z,15.00
2018-07-07T01:44:45.348Z,14.90
2018-07-07T01:47:14.433Z,14.90
2018-07-07T01:49:43.216Z,14.90
2018-07-07T01:52:12.101Z,14.80
2018-07-07T01:54:41.041Z,14.90
2018-07-07T01:57:10.256Z,14.80
2018-07-07T01:59:39.060Z,14.80
2018-07-07T02:02:07.881Z,14.80
2018-07-07T02:04:36.748Z,14.80
2018-07-07T02:07:05.586Z,14.70
2018-07-07T02:09:34.464Z,14.70
2018-07-07T02:14:31.691Z,14.70
2018-07-07T02:17:00.530Z,14.70
2018-07-07T02:19:29.288Z,14.70
2018-07-07T02:21:58.127Z,14.70
2018-07-07T02:24:27.556Z,14.60
2018-07-07T02:26:56.320Z,14.60
2018-07-07T02:29:25.209Z,14.60
2018-07-07T02:31:53.976Z,14.60
2018-07-07T02:34:22.881Z,14.60
2018-07-07T02:36:51.665Z,14.60
2018-07-07T02:39:20.593Z,14.60
2018-07-07T02:41:49.521Z,14.60
2018-07-07T02:44:18.367Z,14.50
2018-07-07T02:46:47.144Z,14.50
2018-07-07T02:49:16.060Z,14.50
2018-07-07T02:51:44.900Z,14.50
2018-07-07T02:54:13.678Z,14.50
2018-07-07T02:56:42.458Z,14.50
2018-07-07T02:59:11.332Z,14.50
2018-07-07T03:01:40.573Z,14.50
2018-07-07T03:04:09.611Z,14.40
2018-07-07T03:06:38.501Z,14.40
2018-07-07T03:09:07.346Z,14.30
2018-07-07T03:11:36.129Z,14.30
2018-07-07T03:14:04.919Z,14.30
2018-07-07T03:16:33.722Z,14.20
2018-07-07T03:19:02.536Z,14.20
2018-07-07T03:21:31.362Z,14.30
2018-07-07T03:24:00.114Z,14.20
2018-07-07T03:26:29.921Z,14.30
2018-07-07T03:28:58.760Z,14.20
2018-07-07T03:31:27.561Z,14.20
2018-07-07T03:33:56.369Z,14.20
2018-07-07T03:36:25.135Z,14.20
2018-07-07T03:38:53.923Z,14.20
2018-07-07T03:41:22.676Z,14.20
2018-07-07T03:43:51.775Z,14.20
2018-07-07T03:48:48.984Z,14.20
2018-07-07T03:51:17.766Z,14.20
2018-07-07T03:53:46.627Z,14.10
2018-07-07T03:56:15.392Z,14.20
2018-07-07T03:58:44.191Z,14.10
2018-07-07T04:01:13.388Z,14.20
2018-07-07T04:03:42.224Z,14.10
2018-07-07T04:06:10.988Z,14.10
2018-07-07T04:08:45.303Z,14.10
2018-07-07T04:11:14.072Z,14.10
2018-07-07T04:13:42.856Z,14.10
2018-07-07T04:16:11.652Z,14.20
2018-07-07T04:18:40.474Z,14.10
2018-07-07T04:21:09.248Z,14.10
2018-07-07T04:23:38.027Z,14.20
2018-07-07T04:26:06.784Z,14.20
2018-07-07T04:28:35.568Z,14.10
2018-07-07T04:31:04.336Z,14.10
2018-07-07T04:33:33.195Z,14.20
2018-07-07T04:36:01.957Z,14.20
2018-07-07T04:38:30.731Z,14.20
2018-07-07T04:40:59.536Z,14.30
2018-07-07T04:43:28.317Z,14.30
2018-07-07T04:45:57.201Z,14.30
2018-07-07T04:48:25.949Z,14.30
2018-07-07T04:50:54.728Z,14.40
2018-07-07T04:53:23.514Z,14.40
2018-07-07T04:55:52.288Z,14.50
2018-07-07T04:58:21.058Z,14.50
2018-07-07T05:00:49.848Z,14.60
2018-07-07T05:03:18.676Z,14.60
2018-07-07T05:05:47.473Z,14.70
2018-07-07T05:08:16.253Z,14.70
2018-07-07T05:10:45.024Z,14.80
2018-07-07T05:13:13.793Z,14.80
2018-07-07T05:15:42.545Z,14.90
2018-07-07T05:18:11.333Z,14.90
2018-07-07T05:20:40.120Z,15.00
2018-07-07T05:23:08.898Z,15.10
2018-07-07T05:25:37.664Z,15.20
2018-07-07T05:28:06.485Z,15.20
2018-07-07T05:30:35.262Z,15.30
2018-07-07T05:33:04.060Z,15.30
2018-07-07T05:35:32.889Z,15.30
2018-07-07T05:38:01.652Z,15.40
2018-07-07T05:40:30.423Z,15.50
2018-07-07T05:42:59.205Z,15.50
2018-07-07T05:45:27.981Z,15.60
2018-07-07T05:47:56.774Z,15.70
2018-07-07T05:50:25.544Z,15.80
2018-07-07T05:52:54.412Z,15.90
2018-07-07T05:55:23.212Z,16.00
2018-07-07T05:57:51.988Z,16.00
2018-07-07T06:00:20.776Z,16.10
2018-07-07T06:02:49.557Z,16.20
2018-07-07T06:05:18.362Z,16.30
2018-07-07T06:07:47.108Z,16.40
2018-07-07T06:10:15.877Z,16.50
2018-07-07T06:12:44.688Z,16.60
2018-07-07T06:15:13.588Z,16.60
2018-07-07T06:17:42.374Z,16.70
2018-07-07T06:20:11.186Z,16.80
2018-07-07T06:22:39.974Z,16.90
2018-07-07T06:25:08.584Z,16.90
2018-07-07T06:27:37.446Z,17.00
2018-07-07T06:30:06.700Z,17.00
2018-07-07T06:32:35.508Z,17.20
2018-07-07T06:35:04.336Z,17.20
2018-07-07T06:37:33.216Z,17.30
2018-07-07T06:40:01.969Z,17.50
2018-07-07T06:42:30.795Z,17.50
2018-07-07T06:44:59.612Z,17.60
2018-07-07T06:47:28.408Z,17.60
2018-07-07T06:49:57.233Z,17.70
2018-07-07T06:52:26.040Z,17.80
2018-07-07T06:54:54.839Z,17.80
2018-07-07T06:57:23.774Z,17.90
2018-07-07T06:59:52.576Z,17.90
2018-07-07T07:02:21.361Z,18.00
2018-07-07T07:04:50.143Z,18.10
2018-07-07T07:07:18.988Z,18.20
2018-07-07T07:09:47.803Z,18.20
2018-07-07T07:12:16.604Z,18.30
2018-07-07T07:14:45.398Z,18.30
2018-07-07T07:17:14.283Z,18.40
2018-07-07T07:19:43.164Z,18.40
2018-07-07T07:22:11.942Z,18.40
2018-07-07T07:24:40.742Z,18.50
2018-07-07T07:27:09.532Z,18.60
2018-07-07T07:29:38.356Z,18.70
2018-07-07T07:32:07.158Z,18.70
2018-07-07T07:34:35.953Z,18.80
2018-07-07T07:37:04.727Z,18.90
2018-07-07T07:39:33.548Z,18.90
2018-07-07T07:42:02.332Z,18.90
2018-07-07T07:44:31.139Z,19.00
2018-07-07T07:46:59.921Z,19.00
2018-07-07T07:49:28.733Z,19.10
2018-07-07T07:51:57.606Z,19.10
2018-07-07T07:54:26.504Z,19.10
2018-07-07T07:56:55.291Z,19.20
2018-07-07T07:59:29.599Z,19.20
2018-07-07T08:01:58.394Z,19.30
2018-07-07T08:04:27.197Z,19.30
2018-07-07T08:06:55.963Z,19.40
2018-07-07T08:09:24.709Z,19.50
2018-07-07T08:11:53.520Z,19.50
2018-07-07T08:14:23.415Z,19.60
2018-07-07T08:16:52.213Z,19.60
2018-07-07T08:19:21.022Z,19.60
2018-07-07T08:21:49.816Z,19.70
2018-07-07T08:24:18.804Z,19.80
2018-07-07T08:26:47.607Z,19.90
2018-07-07T08:29:16.384Z,20.00
2018-07-07T08:31:45.204Z,20.00
2018-07-07T08:34:13.956Z,20.10
2018-07-07T08:36:42.744Z,20.10
2018-07-07T08:39:11.600Z,20.20
2018-07-07T08:41:40.398Z,20.30
2018-07-07T08:44:09.212Z,20.50
2018-07-07T08:46:38.012Z,20.60
2018-07-07T08:49:06.768Z,20.80
2018-07-07T08:51:35.560Z,20.80
2018-07-07T08:54:04.316Z,20.90
2018-07-07T08:56:33.092Z,21.00
2018-07-07T08:59:01.860Z,21.10
2018-07-07T09:01:30.649Z,21.10
2018-07-07T09:03:59.464Z,21.20
2018-07-07T09:06:28.256Z,21.50
2018-07-07T09:08:57.052Z,21.50
2018-07-07T09:11:25.860Z,21.60
2018-07-07T09:13:54.648Z,21.70
2018-07-07T09:16:23.519Z,21.70
2018-07-07T09:18:52.366Z,21.70
2018-07-07T09:21:21.109Z,21.90
2018-07-07T09:23:49.920Z,22.20
2018-07-07T09:26:18.703Z,22.50
2018-07-07T09:28:47.504Z,22.70
2018-07-07T09:31:16.291Z,22.60
2018-07-07T09:33:45.085Z,22.70
2018-07-07T09:36:13.856Z,23.10
2018-07-07T09:38:42.684Z,23.10
2018-07-07T09:41:11.464Z,23.00
2018-07-07T09:43:40.348Z,23.10
2018-07-07T09:46:09.174Z,23.50
2018-07-07T09:48:37.993Z,23.60
2018-07-07T09:51:06.792Z,23.70
2018-07-07T09:53:35.592Z,23.60
2018-07-07T09:56:04.531Z,23.60
2018-07-07T09:58:33.329Z,24.00
2018-07-07T10:01:02.105Z,24.40
2018-07-07T10:03:30.913Z,24.80
2018-07-07T10:05:59.712Z,24.70
2018-07-07T10:08:28.516Z,24.60
2018-07-07T10:10:57.289Z,24.40
2018-07-07T10:13:26.135Z,24.50
2018-07-07T10:15:54.917Z,24.80
2018-07-07T10:18:23.734Z,24.80
2018-07-07T10:20:52.508Z,24.40
2018-07-07T10:23:21.325Z,23.90
2018-07-07T10:25:50.465Z,23.60
2018-07-07T10:28:19.371Z,23.30
2018-07-07T10:30:48.193Z,23.00
2018-07-07T10:33:16.969Z,22.90
2018-07-07T10:35:45.760Z,22.90
2018-07-07T10:38:14.622Z,22.90
2018-07-07T10:40:43.350Z,23.10
2018-07-07T10:43:12.144Z,23.20
2018-07-07T10:45:41.050Z,23.50
2018-07-07T10:48:09.755Z,24.00
2018-07-07T10:50:38.529Z,24.00
2018-07-07T10:53:07.336Z,24.10
2018-07-07T10:58:11.321Z,24.00
2018-07-07T11:00:40.099Z,24.00
2018-07-07T11:03:08.908Z,24.10
2018-07-07T11:05:37.696Z,24.00
2018-07-07T11:08:06.824Z,23.80
2018-07-07T11:10:35.609Z,23.60
2018-07-07T11:13:04.557Z,23.70
2018-07-07T11:15:33.349Z,23.60
2018-07-07T11:18:02.148Z,23.50
2018-07-07T11:20:30.929Z,23.40
2018-07-07T11:22:59.704Z,23.30
2018-07-07T11:25:28.515Z,23.10
2018-07-07T11:27:57.277Z,23.20
2018-07-07T11:30:26.057Z,23.40
2018-07-07T11:32:54.844Z,23.60
2018-07-07T11:35:23.704Z,23.90
2018-07-07T11:37:52.512Z,24.30
2018-07-07T11:40:21.414Z,24.80
2018-07-07T11:42:51.572Z,25.00
2018-07-07T11:45:20.431Z,25.30
2018-07-07T11:47:49.228Z,25.60
2018-07-07T11:50:18.067Z,25.90
2018-07-07T11:52:46.772Z,26.30
2018-07-07T11:55:15.564Z,25.80
2018-07-07T11:57:44.363Z,25.70
2018-07-07T12:00:13.149Z,25.60
2018-07-07T12:02:41.937Z,25.20
2018-07-07T12:05:10.757Z,25.10
2018-07-07T12:07:39.588Z,24.90
2018-07-07T12:10:08.663Z,25.00
2018-07-07T12:12:37.461Z,25.20
2018-07-07T12:15:06.324Z,25.50
2018-07-07T12:17:35.086Z,25.80
2018-07-07T12:20:03.909Z,26.00
2018-07-07T12:22:32.666Z,26.30
2018-07-07T12:25:02.505Z,26.70
2018-07-07T12:27:31.281Z,26.60
2018-07-07T12:30:00.071Z,26.70
2018-07-07T12:32:28.849Z,27.00
2018-07-07T12:34:57.823Z,27.00
2018-07-07T12:37:26.585Z,26.90
2018-07-07T12:39:55.380Z,26.40
2018-07-07T12:42:24.162Z,26.30
2018-07-07T12:44:53.020Z,26.50
2018-07-07T12:47:22.041Z,26.50
2018-07-07T12:49:50.812Z,26.40
2018-07-07T12:52:19.572Z,26.10
2018-07-07T12:54:48.365Z,26.10
2018-07-07T12:57:17.166Z,26.40
2018-07-07T12:59:45.980Z,26.70
2018-07-07T13:02:14.801Z,26.70
2018-07-07T13:04:43.589Z,26.70
2018-07-07T13:07:12.365Z,26.80
2018-07-07T13:09:41.193Z,27.30
2018-07-07T13:12:10.000Z,27.60
2018-07-07T13:14:38.804Z,28.00
2018-07-07T13:17:07.733Z,27.80
2018-07-07T13:19:36.496Z,27.90
2018-07-07T13:22:05.291Z,28.10
2018-07-07T13:24:34.058Z,28.10
2018-07-07T13:27:02.872Z,28.20
2018-07-07T13:29:31.649Z,28.00
2018-07-07T13:32:00.529Z,28.30
2018-07-07T13:34:29.399Z,28.00
2018-07-07T13:36:58.252Z,28.20
2018-07-07T13:39:27.070Z,28.20
2018-07-07T13:41:55.884Z,28.50
2018-07-07T13:44:24.660Z,28.20
2018-07-07T13:46:53.475Z,27.90
2018-07-07T13:49:22.254Z,28.10
2018-07-07T13:51:51.064Z,27.90
2018-07-07T13:54:20.121Z,27.90
2018-07-07T13:56:48.917Z,27.30
2018-07-07T13:59:17.726Z,27.10
2018-07-07T14:01:46.574Z,27.30
2018-07-07T14:04:15.368Z,27.90
2018-07-07T14:06:44.153Z,28.10
2018-07-07T14:09:12.941Z,28.10
2018-07-07T14:11:41.754Z,28.10
2018-07-07T14:14:10.543Z,28.00
2018-07-07T14:16:39.405Z,27.90
2018-07-07T14:19:08.197Z,27.80
2018-07-07T14:21:37.003Z,27.80
2018-07-07T14:24:05.870Z,28.10
2018-07-07T14:26:34.715Z,28.10
2018-07-07T14:29:03.541Z,28.50
2018-07-07T14:31:32.363Z,28.80
2018-07-07T14:36:29.608Z,28.30
2018-07-07T14:38:58.392Z,28.30
2018-07-07T14:41:27.199Z,28.20
2018-07-07T14:44:02.524Z,28.70
2018-07-07T14:46:32.351Z,28.80
2018-07-07T14:49:01.170Z,28.60
2018-07-07T14:51:30.013Z,28.00
2018-07-07T14:53:58.803Z,28.20
2018-07-07T14:56:28.333Z,28.50
2018-07-07T14:58:57.951Z,28.70
2018-07-07T15:01:26.747Z,28.60
2018-07-07T15:03:55.528Z,28.40
2018-07-07T15:06:24.324Z,28.20
2018-07-07T15:08:53.106Z,28.00
2018-07-07T15:11:21.871Z,27.50
2018-07-07T15:13:50.763Z,27.20
2018-07-07T15:16:20.608Z,26.80
2018-07-07T15:18:49.396Z,26.80
2018-07-07T15:21:18.218Z,26.70
2018-07-07T15:23:47.010Z,26.90
2018-07-07T15:26:15.824Z,27.30
2018-07-07T15:28:44.633Z,27.50
2018-07-07T15:31:13.437Z,27.40
2018-07-07T15:33:42.215Z,27.20
2018-07-07T15:36:11.026Z,26.90
2018-07-07T15:38:39.815Z,26.90
2018-07-07T15:41:08.592Z,26.80
2018-07-07T15:43:37.492Z,27.00
2018-07-07T15:46:06.336Z,27.00
2018-07-07T15:48:35.105Z,27.30
2018-07-07T15:51:03.897Z,27.30
2018-07-07T15:53:32.677Z,27.40
2018-07-07T15:56:01.544Z,27.10
2018-07-07T15:58:30.351Z,27.10
2018-07-07T16:00:59.140Z,27.00
2018-07-07T16:03:27.928Z,27.00
2018-07-07T16:05:56.708Z,27.00
2018-07-07T16:08:25.674Z,27.20
2018-07-07T16:10:54.455Z,27.30
2018-07-07T16:13:24.153Z,27.30
2018-07-07T16:15:52.911Z,27.50
2018-07-07T16:18:21.708Z,27.80
2018-07-07T16:20:50.523Z,27.70
2018-07-07T16:23:19.296Z,27.80
2018-07-07T16:25:48.068Z,27.80
2018-07-07T16:28:16.893Z,27.80
2018-07-07T16:30:45.691Z,27.60
2018-07-07T16:33:14.480Z,27.70
2018-07-07T16:35:43.313Z,27.50
2018-07-07T16:38:12.126Z,27.40
2018-07-07T16:40:40.920Z,27.20
2018-07-07T16:43:09.744Z,27.30
2018-07-07T16:45:38.580Z,27.30
2018-07-07T16:50:35.829Z,27.00
2018-07-07T16:53:04.703Z,26.70
2018-07-07T16:55:33.485Z,26.90
2018-07-07T16:58:02.272Z,27.20
2018-07-07T17:00:31.216Z,27.20
2018-07-07T17:02:59.965Z,27.10
2018-07-07T17:05:28.809Z,26.60
2018-07-07T17:07:57.611Z,26.60
2018-07-07T17:10:26.409Z,26.70
2018-07-07T17:12:55.216Z,26.60
2018-07-07T17:15:24.143Z,26.50
2018-07-07T17:17:52.917Z,26.30
2018-07-07T17:20:21.704Z,26.10
2018-07-07T17:22:50.950Z,25.90
2018-07-07T17:25:19.838Z,25.80
2018-07-07T17:27:48.632Z,25.80
2018-07-07T17:30:18.051Z,25.70
2018-07-07T17:32:46.849Z,25.70
2018-07-07T17:35:15.685Z,25.70
2018-07-07T17:37:44.516Z,25.60
2018-07-07T17:40:13.373Z,25.50
2018-07-07T17:42:42.134Z,25.50
2018-07-07T17:45:10.925Z,25.50
2018-07-07T17:47:39.763Z,25.40
2018-07-07T17:50:08.570Z,25.40
2018-07-07T17:52:37.372Z,25.30
2018-07-07T17:55:07.408Z,25.20
2018-07-07T17:57:37.214Z,25.10
2018-07-07T18:00:06.029Z,25.00
2018-07-07T18:02:34.800Z,25.00
2018-07-07T18:05:03.645Z,25.00
2018-07-07T18:07:32.502Z,24.90
2018-07-07T18:10:01.288Z,24.80
2018-07-07T18:12:30.173Z,24.70
2018-07-07T18:14:58.993Z,24.70
2018-07-07T18:17:27.772Z,24.60
2018-07-07T18:19:56.565Z,24.60
2018-07-07T18:22:25.983Z,24.40
2018-07-07T18:24:54.717Z,24.50
2018-07-07T18:29:51.944Z,24.30
2018-07-07T18:32:21.552Z,24.10
2018-07-07T18:34:50.383Z,23.90
2018-07-07T18:37:19.210Z,23.70
2018-07-07T18:39:48.083Z,23.70
2018-07-07T18:42:16.954Z,23.60
2018-07-07T18:44:45.752Z,23.50
2018-07-07T18:47:14.558Z,23.50
2018-07-07T18:49:43.364Z,23.30
2018-07-07T18:52:12.143Z,23.20
2018-07-07T18:54:41.976Z,23.20
2018-07-07T18:57:10.777Z,23.10
2018-07-07T18:59:39.569Z,23.10
2018-07-07T19:02:08.376Z,23.00
2018-07-07T19:04:37.155Z,22.90
2018-07-07T19:07:05.922Z,22.80
2018-07-07T19:09:34.769Z,22.60
2018-07-07T19:12:03.594Z,22.60
2018-07-07T19:14:32.380Z,22.50
2018-07-07T19:17:01.327Z,22.50
2018-07-07T19:19:30.136Z,22.40
2018-07-07T19:22:04.377Z,22.20
2018-07-07T19:24:38.590Z,22.20
2018-07-07T19:27:07.824Z,22.10
2018-07-07T19:29:36.608Z,22.10
2018-07-07T19:32:10.810Z,22.00
2018-07-07T19:34:45.073Z,21.90
2018-07-07T19:37:17.391Z,21.80
2018-07-07T19:39:46.776Z,21.80
2018-07-07T19:42:15.706Z,21.80
2018-07-07T19:44:44.533Z,21.70
2018-07-07T19:47:13.315Z,21.60
2018-07-07T19:49:42.154Z,21.50
2018-07-07T19:52:11.236Z,21.50
2018-07-07T19:54:40.039Z,21.40
2018-07-07T19:57:08.852Z,21.40
2018-07-07T19:59:37.644Z,21.40
2018-07-07T20:02:06.537Z,21.30
2018-07-07T20:04:35.372Z,21.30
2018-07-07T20:07:04.185Z,21.30
2018-07-07T20:09:33.044Z,21.20
2018-07-07T20:12:01.845Z,21.10
2018-07-07T20:14:30.636Z,21.10
2018-07-07T20:17:04.168Z,21.10
2018-07-07T20:22:07.826Z,21.10
2018-07-07T20:24:38.000Z,21.10
2018-07-07T20:27:13.022Z,21.00
2018-07-07T20:29:42.112Z,20.90
2018-07-07T20:32:16.381Z,20.90
2018-07-07T20:34:45.203Z,20.90
2018-07-07T20:37:14.038Z,20.90
2018-07-07T20:39:42.853Z,20.80
2018-07-07T20:42:11.696Z,20.80
2018-07-07T20:44:40.492Z,20.80
2018-07-07T20:47:09.347Z,20.70
2018-07-07T20:49:38.204Z,20.70
2018-07-07T20:52:07.020Z,20.70
2018-07-07T20:54:35.837Z,20.70
2018-07-07T20:57:04.672Z,20.70
2018-07-07T20:59:33.491Z,20.70
2018-07-07T21:02:02.286Z,20.70
2018-07-07T21:04:31.108Z,20.80
2018-07-07T21:06:59.926Z,20.70
2018-07-07T21:09:28.754Z,20.70
2018-07-07T21:11:57.620Z,20.70
2018-07-07T21:14:26.413Z,20.60
2018-07-07T21:16:55.291Z,20.60
2018-07-07T21:19:24.161Z,20.50
2018-07-07T21:24:21.465Z,20.50
2018-07-07T21:26:50.305Z,20.50
2018-07-07T21:29:19.152Z,20.50
2018-07-07T21:31:47.940Z,20.40
2018-07-07T21:34:16.775Z,20.40
2018-07-07T21:36:45.616Z,20.40
2018-07-07T21:39:14.432Z,20.30
2018-07-07T21:41:43.272Z,20.30
2018-07-07T21:44:12.078Z,20.20
2018-07-07T21:46:40.901Z,20.20
2018-07-07T21:49:09.736Z,20.20
2018-07-07T21:51:38.568Z,20.20
2018-07-07T21:54:07.456Z,20.10
2018-07-07T21:56:36.289Z,20.10
2018-07-07T21:59:10.573Z,20.10
2018-07-07T22:02:02.604Z,20.00
2018-07-07T22:04:36.666Z,20.00
2018-07-07T22:07:11.977Z,19.90
2018-07-07T22:09:41.216Z,19.80
2018-07-07T22:12:10.061Z,19.80
2018-07-07T22:14:38.877Z,19.80
2018-07-07T22:17:07.701Z,19.70
2018-07-07T22:19:36.587Z,19.60
2018-07-07T22:22:06.440Z,19.60
2018-07-07T22:24:35.465Z,19.50
2018-07-07T22:27:06.267Z,19.40
2018-07-07T22:29:35.087Z,19.40
2018-07-07T22:32:05.267Z,19.40
2018-07-07T22:34:38.114Z,19.30
2018-07-07T22:37:07.133Z,19.30
2018-07-07T22:39:37.074Z,19.30
2018-07-07T22:42:07.024Z,19.30
2018-07-07T22:44:36.507Z,19.20
2018-07-07T22:47:05.384Z,19.30
2018-07-07T22:49:34.212Z,19.30
2018-07-07T22:52:04.165Z,19.20
2018-07-07T22:54:33.187Z,19.20
2018-07-07T22:57:02.091Z,19.10
2018-07-07T22:59:30.995Z,19.00
2018-07-07T23:02:00.020Z,19.00
2018-07-07T23:04:28.874Z,18.90
2018-07-07T23:06:57.726Z,18.90
2018-07-07T23:09:26.669Z,18.90
2018-07-07T23:11:55.544Z,19.00
2018-07-07T23:14:24.392Z,18.90
2018-07-07T23:16:57.208Z,18.80
2018-07-07T23:19:26.356Z,18.80
2018-07-07T23:21:55.299Z,18.80
2018-07-07T23:24:24.151Z,18.80
2018-07-07T23:26:53.071Z,18.80
2018-07-07T23:29:21.894Z,18.70
2018-07-07T23:31:50.699Z,18.60
2018-07-07T23:34:19.500Z,18.60
2018-07-07T23:36:48.292Z,18.60
2018-07-07T23:39:17.124Z,18.60
2018-07-07T23:41:45.939Z,18.60
2018-07-07T23:44:14.754Z,18.60
2018-07-07T23:46:43.545Z,18.50
2018-07-07T23:49:12.366Z,18.50
2018-07-07T23:51:41.214Z,18.40
2018-07-07T23:54:10.016Z,18.50
2018-07-07T23:56:38.859Z,18.40
2018-07-07T23:59:07.658Z,18.50
